createdAt,value
2023-03-01T00:01:31.791Z,18.00
2023-03-01T00:04:54.058Z,17.90
2023-03-01T00:08:16.281Z,17.90
2023-03-01T00:11:38.774Z,17.90
2023-03-01T00:15:01.084Z,17.90
2023-03-01T00:18:23.636Z,17.80
2023-03-01T00:21:45.935Z,17.80
2023-03-01T00:25:08.539Z,17.80
2023-03-01T00:28:30.745Z,17.90
2023-03-01T00:31:53.109Z,17.80
2023-03-01T00:35:15.513Z,17.80
2023-03-01T00:38:39.450Z,17.90
2023-03-01T00:42:01.793Z,17.80
2023-03-01T00:45:24.203Z,17.80
2023-03-01T00:48:46.984Z,17.80
2023-03-01T00:52:09.276Z,17.80
2023-03-01T00:55:31.628Z,17.80
2023-03-01T00:58:54.100Z,17.80
2023-03-01T01:02:16.417Z,17.80
2023-03-01T01:05:38.816Z,17.80
2023-03-01T01:09:01.673Z,17.80
2023-03-01T01:12:24.078Z,17.80
2023-03-01T01:15:46.376Z,17.80
2023-03-01T01:19:10.023Z,17.80
2023-03-01T01:22:32.354Z,17.70
2023-03-01T01:25:54.718Z,17.70
2023-03-01T01:29:17.195Z,17.70
2023-03-01T01:32:39.626Z,17.70
2023-03-01T01:36:01.912Z,17.70
2023-03-01T01:39:24.324Z,17.70
2023-03-01T01:42:46.799Z,17.70
2023-03-01T01:46:18.059Z,17.70
2023-03-01T01:49:50.479Z,17.60
2023-03-01T01:53:17.440Z,17.70
2023-03-01T01:56:43.691Z,17.60
2023-03-01T02:00:10.474Z,17.70
2023-03-01T02:03:43.319Z,17.70
2023-03-01T02:07:17.284Z,17.60
2023-03-01T02:10:40.335Z,17.70
2023-03-01T02:14:02.687Z,17.60
2023-03-01T02:17:25.370Z,17.60
2023-03-01T02:20:59.774Z,17.60
2023-03-01T02:24:54.454Z,17.60
2023-03-01T02:28:16.739Z,17.60
2023-03-01T02:31:45.906Z,17.60
2023-03-01T02:35:11.337Z,17.60
2023-03-01T02:38:33.457Z,17.60
2023-03-01T02:41:58.832Z,17.60
2023-03-01T02:45:22.173Z,17.60
2023-03-01T02:48:51.425Z,17.60
2023-03-01T02:52:26.075Z,17.60
2023-03-01T02:55:48.956Z,17.60
2023-03-01T02:59:12.557Z,17.50
2023-03-01T03:02:38.227Z,17.60
2023-03-01T03:06:10.182Z,17.60
2023-03-01T03:09:32.590Z,17.50
2023-03-01T03:13:00.584Z,17.60
2023-03-01T03:16:23.408Z,17.50
2023-03-01T03:19:46.430Z,17.50
2023-03-01T03:23:08.944Z,17.60
2023-03-01T03:26:32.082Z,17.50
2023-03-01T03:29:54.673Z,17.50
2023-03-01T03:33:17.011Z,17.50
2023-03-01T03:36:39.256Z,17.50
2023-03-01T03:40:01.497Z,17.50
2023-03-01T03:43:24.439Z,17.50
2023-03-01T03:46:46.744Z,17.60
2023-03-01T03:50:11.309Z,17.50
2023-03-01T03:53:34.659Z,17.50
2023-03-01T03:56:56.965Z,17.50
2023-03-01T04:00:22.146Z,17.50
2023-03-01T04:03:47.674Z,17.50
2023-03-01T04:07:09.917Z,17.60
2023-03-01T04:10:42.036Z,17.50
2023-03-01T04:14:05.424Z,17.50
2023-03-01T04:17:28.053Z,17.50
2023-03-01T04:20:53.169Z,17.50
2023-03-01T04:24:15.516Z,17.50
2023-03-01T04:27:38.445Z,17.50
2023-03-01T04:31:14.462Z,17.40
2023-03-01T04:34:36.846Z,17.50
2023-03-01T04:37:59.461Z,17.50
2023-03-01T04:41:23.591Z,17.50
2023-03-01T04:44:46.619Z,17.50
2023-03-01T04:48:09.049Z,17.50
2023-03-01T04:51:33.150Z,17.60
2023-03-01T04:54:55.358Z,17.50
2023-03-01T04:58:17.623Z,17.60
2023-03-01T05:01:40.126Z,17.60
2023-03-01T05:05:02.402Z,17.60
2023-03-01T05:08:24.583Z,17.60
2023-03-01T05:11:47.083Z,17.60
2023-03-01T05:15:09.623Z,17.60
2023-03-01T05:18:34.373Z,17.70
2023-03-01T05:22:02.751Z,17.80
2023-03-01T05:25:25.466Z,17.90
2023-03-01T05:28:47.752Z,18.00
2023-03-01T05:32:10.754Z,18.00
2023-03-01T05:35:34.431Z,18.10
2023-03-01T05:38:56.874Z,18.20
2023-03-01T05:42:19.163Z,18.20
2023-03-01T05:45:42.484Z,18.20
2023-03-01T05:49:05.310Z,18.30
2023-03-01T05:52:27.526Z,18.30
2023-03-01T05:55:50.797Z,18.40
2023-03-01T05:59:13.143Z,18.40
2023-03-01T06:02:35.448Z,18.40
2023-03-01T06:05:59.140Z,18.40
2023-03-01T06:09:21.426Z,18.40
2023-03-01T06:12:44.812Z,18.40
2023-03-01T06:16:08.132Z,18.40
2023-03-01T06:19:30.570Z,18.40
2023-03-01T06:22:53.107Z,18.40
2023-03-01T06:26:15.453Z,18.40
2023-03-01T06:29:37.751Z,18.40
2023-03-01T06:33:04.041Z,18.40
2023-03-01T06:36:26.362Z,18.40
2023-03-01T06:39:48.669Z,18.40
2023-03-01T06:43:10.925Z,18.40
2023-03-01T06:46:33.635Z,18.40
2023-03-01T06:49:56.150Z,18.40
2023-03-01T06:53:18.427Z,18.40
2023-03-01T06:56:40.639Z,18.40
2023-03-01T07:00:04.531Z,18.40
2023-03-01T07:03:26.771Z,18.40
2023-03-01T07:06:55.266Z,18.50
2023-03-01T07:10:17.709Z,18.50
2023-03-01T07:13:40.152Z,18.50
2023-03-01T07:17:02.415Z,18.50
2023-03-01T07:20:26.406Z,18.50
2023-03-01T07:23:50.128Z,18.50
2023-03-01T07:27:13.689Z,18.50
2023-03-01T07:30:35.965Z,18.50
2023-03-01T07:33:58.508Z,18.50
2023-03-01T07:37:20.750Z,18.40
2023-03-01T07:40:43.018Z,18.30
2023-03-01T07:44:05.505Z,18.40
2023-03-01T07:47:27.846Z,18.70
2023-03-01T07:50:50.120Z,18.80
2023-03-01T07:54:12.412Z,18.90
2023-03-01T07:57:34.704Z,19.00
2023-03-01T08:00:57.007Z,19.00
2023-03-01T08:04:19.343Z,19.10
2023-03-01T08:07:41.682Z,19.10
2023-03-01T08:11:05.701Z,19.00
2023-03-01T08:14:28.074Z,19.00
2023-03-01T08:17:51.581Z,18.90
2023-03-01T08:21:16.877Z,18.90
2023-03-01T08:24:39.162Z,19.00
2023-03-01T08:28:01.357Z,19.00
2023-03-01T08:31:28.395Z,19.00
2023-03-01T08:34:50.691Z,19.00
2023-03-01T08:38:12.850Z,19.00
2023-03-01T08:41:35.332Z,19.00
2023-03-01T08:44:57.758Z,19.00
2023-03-01T08:48:20.099Z,19.00
2023-03-01T08:51:42.752Z,19.00
2023-03-01T08:55:05.185Z,19.00
2023-03-01T08:58:27.311Z,19.00
2023-03-01T09:01:49.517Z,19.00
2023-03-01T09:05:11.709Z,19.10
2023-03-01T09:08:38.729Z,19.10
2023-03-01T09:12:01.010Z,19.10
2023-03-01T09:15:23.176Z,19.00
2023-03-01T09:18:45.575Z,19.10
2023-03-01T09:22:07.871Z,19.00
2023-03-01T09:25:29.988Z,19.00
2023-03-01T09:28:53.043Z,19.00
2023-03-01T09:32:15.256Z,19.00
2023-03-01T09:35:47.884Z,19.00
2023-03-01T09:39:10.028Z,19.00
2023-03-01T09:42:36.909Z,19.10
2023-03-01T09:46:05.588Z,19.10
2023-03-01T09:49:37.803Z,19.00
2023-03-01T09:53:04.593Z,19.00
2023-03-01T09:56:31.462Z,18.90
2023-03-01T10:00:12.675Z,18.90
2023-03-01T10:03:41.325Z,18.80
2023-03-01T10:07:13.797Z,18.70
2023-03-01T10:10:38.182Z,18.70
2023-03-01T10:14:00.301Z,18.70
2023-03-01T10:17:28.671Z,18.70
2023-03-01T10:20:59.696Z,18.60
2023-03-01T10:24:22.678Z,18.60
2023-03-01T10:28:02.611Z,18.60
2023-03-01T10:31:30.472Z,18.60
2023-03-01T10:34:53.043Z,18.60
2023-03-01T10:38:16.743Z,18.50
2023-03-01T10:41:52.583Z,18.50
2023-03-01T10:45:17.715Z,18.50
2023-03-01T10:48:39.988Z,18.50
2023-03-01T10:52:17.111Z,18.50
2023-03-01T10:55:40.710Z,18.50
2023-03-01T10:59:06.492Z,18.50
2023-03-01T11:02:33.833Z,18.60
2023-03-01T11:05:58.094Z,18.50
2023-03-01T11:09:24.615Z,18.50
2023-03-01T11:12:46.916Z,18.60
2023-03-01T11:16:12.334Z,18.50
2023-03-01T11:19:34.530Z,18.50
2023-03-01T11:23:02.421Z,18.50
2023-03-01T11:26:24.733Z,18.50
2023-03-01T11:29:53.834Z,18.50
2023-03-01T11:33:22.864Z,18.60
2023-03-01T11:36:47.465Z,18.80
2023-03-01T11:40:14.637Z,18.80
2023-03-01T11:43:36.844Z,18.80
2023-03-01T11:47:02.137Z,18.80
2023-03-01T11:50:50.847Z,18.90
2023-03-01T11:54:24.948Z,18.80
2023-03-01T11:58:07.386Z,18.90
2023-03-01T12:01:41.751Z,18.90
2023-03-01T12:05:23.431Z,18.90
2023-03-01T12:09:00.682Z,18.90
2023-03-01T12:12:46.760Z,19.00
2023-03-01T12:16:38.316Z,19.00
2023-03-01T12:20:18.998Z,19.00
2023-03-01T12:23:52.048Z,19.00
2023-03-01T12:27:14.143Z,19.00
2023-03-01T12:30:39.301Z,19.00
2023-03-01T12:34:01.633Z,19.00
2023-03-01T12:37:26.977Z,19.00
2023-03-01T12:40:54.957Z,19.00
2023-03-01T12:44:20.134Z,19.00
2023-03-01T12:48:14.900Z,19.00
2023-03-01T12:51:39.025Z,18.90
2023-03-01T12:55:02.443Z,19.00
2023-03-01T12:58:34.111Z,18.90
2023-03-01T13:02:05.611Z,18.90
2023-03-01T13:05:30.702Z,18.80
2023-03-01T13:09:08.220Z,18.80
2023-03-01T13:12:49.079Z,18.80
2023-03-01T13:16:23.848Z,18.90
2023-03-01T13:19:57.508Z,18.90
2023-03-01T13:23:22.505Z,18.90
2023-03-01T13:27:03.444Z,18.90
2023-03-01T13:30:39.707Z,18.90
2023-03-01T13:34:08.289Z,18.80
2023-03-01T13:37:34.762Z,18.80
2023-03-01T13:40:56.895Z,18.90
2023-03-01T13:44:28.165Z,18.80
2023-03-01T13:47:53.755Z,18.80
2023-03-01T13:51:15.916Z,18.80
2023-03-01T13:54:39.624Z,18.80
2023-03-01T13:58:03.591Z,18.80
2023-03-01T14:01:30.702Z,18.80
2023-03-01T14:05:00.417Z,18.80
2023-03-01T14:08:24.304Z,18.80
2023-03-01T14:11:49.261Z,18.80
2023-03-01T14:15:19.031Z,18.80
2023-03-01T14:18:44.274Z,18.80
2023-03-01T14:22:23.953Z,18.80
2023-03-01T14:25:50.241Z,18.80
2023-03-01T14:29:36.141Z,18.80
2023-03-01T14:32:59.526Z,18.80
2023-03-01T14:36:26.619Z,18.80
2023-03-01T14:39:49.367Z,18.80
2023-03-01T14:43:12.698Z,18.70
2023-03-01T14:46:40.288Z,18.70
2023-03-01T14:50:10.076Z,18.70
2023-03-01T14:53:40.146Z,18.70
2023-03-01T14:57:25.268Z,18.70
2023-03-01T15:00:50.269Z,18.70
2023-03-01T15:04:14.102Z,18.70
2023-03-01T15:07:38.143Z,18.70
2023-03-01T15:11:21.496Z,18.70
2023-03-01T15:14:52.224Z,18.70
2023-03-01T15:18:22.574Z,18.70
2023-03-01T15:21:45.886Z,18.70
2023-03-01T15:25:15.018Z,18.70
2023-03-01T15:28:41.255Z,18.70
2023-03-01T15:32:10.881Z,18.70
2023-03-01T15:35:42.886Z,18.70
2023-03-01T15:39:07.177Z,18.70
2023-03-01T15:42:29.320Z,18.70
2023-03-01T15:45:57.266Z,18.70
2023-03-01T15:49:46.497Z,18.70
2023-03-01T15:53:16.114Z,18.70
2023-03-01T15:56:38.336Z,18.70
2023-03-01T16:00:01.261Z,18.70
2023-03-01T16:03:23.991Z,18.70
2023-03-01T16:06:46.159Z,18.70
2023-03-01T16:10:08.438Z,18.70
2023-03-01T16:13:30.711Z,18.60
2023-03-01T16:16:52.967Z,18.60
2023-03-01T16:20:27.861Z,18.60
2023-03-01T16:23:52.097Z,18.60
2023-03-01T16:27:16.526Z,18.60
2023-03-01T16:30:40.370Z,18.60
2023-03-01T16:34:02.706Z,18.60
2023-03-01T16:37:24.799Z,18.60
2023-03-01T16:40:51.465Z,18.60
2023-03-01T16:44:13.574Z,18.60
2023-03-01T16:47:35.866Z,18.50
2023-03-01T16:50:59.172Z,18.60
2023-03-01T16:54:21.379Z,18.50
2023-03-01T16:57:43.514Z,18.50
2023-03-01T17:01:10.288Z,18.50
2023-03-01T17:04:32.876Z,18.60
2023-03-01T17:07:56.892Z,18.50
2023-03-01T17:11:20.089Z,18.50
2023-03-01T17:14:42.571Z,18.50
2023-03-01T17:18:04.889Z,18.40
2023-03-01T17:21:27.182Z,18.40
2023-03-01T17:24:49.362Z,18.30
2023-03-01T17:28:12.662Z,18.30
2023-03-01T17:31:35.055Z,18.40
2023-03-01T17:34:57.224Z,18.40
2023-03-01T17:38:19.415Z,18.40
2023-03-01T17:41:41.581Z,18.50
2023-03-01T17:45:03.918Z,18.40
2023-03-01T17:48:26.122Z,18.40
2023-03-01T17:51:48.248Z,18.40
2023-03-01T17:55:10.679Z,18.30
2023-03-01T17:58:33.033Z,18.30
2023-03-01T18:01:55.198Z,18.30
2023-03-01T18:05:17.335Z,18.30
2023-03-01T18:08:39.555Z,18.30
2023-03-01T18:12:01.803Z,18.30
2023-03-01T18:15:24.070Z,18.30
2023-03-01T18:18:46.327Z,18.40
2023-03-01T18:22:08.774Z,18.40
2023-03-01T18:25:30.921Z,18.50
2023-03-01T18:28:53.557Z,18.50
2023-03-01T18:32:15.860Z,18.50
2023-03-01T18:35:38.451Z,18.50
2023-03-01T18:39:04.710Z,18.50
2023-03-01T18:42:26.860Z,18.60
2023-03-01T18:45:49.374Z,18.60
2023-03-01T18:49:11.994Z,18.70
2023-03-01T18:52:34.146Z,18.70
2023-03-01T18:55:59.735Z,18.70
2023-03-01T18:59:21.904Z,18.80
2023-03-01T19:02:44.205Z,18.80
2023-03-01T19:06:06.438Z,18.80
2023-03-01T19:09:29.093Z,18.90
2023-03-01T19:12:51.329Z,18.90
2023-03-01T19:16:13.521Z,18.90
2023-03-01T19:19:36.310Z,18.90
2023-03-01T19:22:58.455Z,19.00
2023-03-01T19:26:22.077Z,19.00
2023-03-01T19:29:44.301Z,19.00
2023-03-01T19:33:06.531Z,19.10
2023-03-01T19:36:35.063Z,19.10
2023-03-01T19:39:57.217Z,19.10
2023-03-01T19:43:19.504Z,19.20
2023-03-01T19:46:41.819Z,19.20
2023-03-01T19:50:04.213Z,19.30
2023-03-01T19:53:26.431Z,19.30
2023-03-01T19:56:51.611Z,19.30
2023-03-01T20:00:14.242Z,19.30
2023-03-01T20:03:36.645Z,19.20
2023-03-01T20:06:58.760Z,19.20
2023-03-01T20:10:20.986Z,19.20
2023-03-01T20:13:43.229Z,19.20
2023-03-01T20:17:05.451Z,19.20
2023-03-01T20:20:27.585Z,19.30
2023-03-01T20:23:50.160Z,19.30
2023-03-01T20:27:12.320Z,19.20
2023-03-01T20:30:34.834Z,19.20
2023-03-01T20:33:57.623Z,19.20
2023-03-01T20:37:19.911Z,19.20
2023-03-01T20:40:42.049Z,19.10
2023-03-01T20:44:06.588Z,19.10
2023-03-01T20:47:28.798Z,19.20
2023-03-01T20:50:51.030Z,19.10
2023-03-01T20:54:13.496Z,19.10
2023-03-01T20:57:35.725Z,19.10
2023-03-01T21:00:57.910Z,19.10
2023-03-01T21:04:20.308Z,19.10
2023-03-01T21:07:42.988Z,19.00
2023-03-01T21:11:06.448Z,19.00
2023-03-01T21:14:29.460Z,19.00
2023-03-01T21:17:51.646Z,18.90
2023-03-01T21:21:16.054Z,18.90
2023-03-01T21:24:38.664Z,18.90
2023-03-01T21:28:01.115Z,18.80
2023-03-01T21:31:28.293Z,18.80
2023-03-01T21:34:50.544Z,18.80
2023-03-01T21:38:12.668Z,18.80
2023-03-01T21:41:36.442Z,18.80
2023-03-01T21:44:58.648Z,18.80
2023-03-01T21:48:21.209Z,18.80
2023-03-01T21:51:43.388Z,18.80
2023-03-01T21:55:05.837Z,18.70
2023-03-01T21:58:29.006Z,18.60
2023-03-01T22:01:51.877Z,18.70
2023-03-01T22:05:14.182Z,18.60
2023-03-01T22:08:36.320Z,18.60
2023-03-01T22:12:02.068Z,18.60
2023-03-01T22:15:25.002Z,18.50
2023-03-01T22:18:47.534Z,18.50
2023-03-01T22:22:09.657Z,18.60
2023-03-01T22:25:32.245Z,18.60
2023-03-01T22:28:55.394Z,18.60
2023-03-01T22:32:17.748Z,18.50
2023-03-01T22:35:43.176Z,18.50
2023-03-01T22:39:05.676Z,18.60
2023-03-01T22:42:27.886Z,18.50
2023-03-01T22:45:50.105Z,18.50
2023-03-01T22:49:12.501Z,18.50
2023-03-01T22:52:34.728Z,18.40
2023-03-01T22:55:56.834Z,18.40
2023-03-01T22:59:19.940Z,18.40
2023-03-01T23:02:42.228Z,18.40
2023-03-01T23:06:04.514Z,18.30
2023-03-01T23:09:30.808Z,18.30
2023-03-01T23:12:56.570Z,18.30
2023-03-01T23:16:19.054Z,18.30
2023-03-01T23:19:41.434Z,18.30
2023-03-01T23:23:03.840Z,18.20
2023-03-01T23:26:26.975Z,18.20
2023-03-01T23:29:51.834Z,18.20
2023-03-01T23:33:13.979Z,18.20
2023-03-01T23:36:36.282Z,18.20
2023-03-01T23:39:58.458Z,18.20
2023-03-01T23:43:20.590Z,18.20
2023-03-01T23:46:43.245Z,18.20
2023-03-01T23:50:05.671Z,18.20
2023-03-01T23:53:27.877Z,18.10
2023-03-01T23:56:50.415Z,18.10
